createdAt,value
2023-02-05T00:00:08.072Z,8.32
2023-02-05T00:00:43.317Z,9.20
2023-02-05T00:01:16.397Z,8.00
2023-02-05T00:01:51.323Z,9.70
2023-02-05T00:02:26.335Z,9.00
2023-02-05T00:03:01.073Z,8.93
2023-02-05T00:03:36.610Z,9.38
2023-02-05T00:04:12.422Z,9.52
2023-02-05T00:04:45.872Z,8.95
2023-02-05T00:05:20.156Z,8.82
2023-02-05T00:05:54.985Z,8.70
2023-02-05T00:06:29.281Z,9.10
2023-02-05T00:07:02.853Z,8.80
2023-02-05T00:07:37.543Z,8.57
2023-02-05T00:08:10.582Z,8.38
2023-02-05T00:08:47.326Z,8.80
2023-02-05T00:09:20.449Z,7.70
2023-02-05T00:09:54.140Z,9.23
2023-02-05T00:10:28.074Z,8.30
2023-02-05T00:11:07.689Z,9.05
2023-02-05T00:11:42.093Z,9.07
2023-02-05T00:12:17.357Z,8.82
2023-02-05T00:12:51.584Z,8.73
2023-02-05T00:13:25.754Z,8.07
2023-02-05T00:14:01.645Z,8.57
2023-02-05T00:14:37.478Z,7.90
2023-02-05T00:15:11.931Z,8.80
2023-02-05T00:15:47.159Z,8.25
2023-02-05T00:16:22.927Z,8.50
2023-02-05T00:16:57.276Z,8.27
2023-02-05T00:17:31.804Z,9.00
2023-02-05T00:18:05.674Z,8.07
2023-02-05T00:18:39.733Z,9.07
2023-02-05T00:19:14.826Z,8.60
2023-02-05T00:19:49.228Z,8.68
2023-02-05T00:20:24.210Z,8.90
2023-02-05T00:21:00.279Z,9.10
2023-02-05T00:21:34.274Z,8.85
2023-02-05T00:22:08.877Z,8.48
2023-02-05T00:22:44.076Z,8.40
2023-02-05T00:23:17.267Z,8.52
2023-02-05T00:23:52.856Z,9.20
2023-02-05T00:24:27.718Z,8.90
2023-02-05T00:25:01.294Z,8.57
2023-02-05T00:25:38.132Z,8.90
2023-02-05T00:26:14.340Z,8.15
2023-02-05T00:26:49.467Z,9.38
2023-02-05T00:27:24.301Z,9.18
2023-02-05T00:27:57.943Z,8.93
2023-02-05T00:28:32.897Z,9.82
2023-02-05T00:29:07.520Z,9.25
2023-02-05T00:29:41.645Z,9.40
2023-02-05T00:30:16.018Z,9.93
2023-02-05T00:30:51.279Z,8.93
2023-02-05T00:31:25.674Z,9.45
2023-02-05T00:31:59.677Z,8.68
2023-02-05T00:32:35.644Z,8.73
2023-02-05T00:33:11.533Z,8.20
2023-02-05T00:33:45.846Z,8.57
2023-02-05T00:34:22.056Z,8.70
2023-02-05T00:34:55.879Z,9.13
2023-02-05T00:35:30.126Z,9.27
2023-02-05T00:36:04.303Z,9.73
2023-02-05T00:36:39.465Z,8.40
2023-02-05T00:37:13.113Z,8.70
2023-02-05T00:37:46.177Z,8.70
2023-02-05T00:38:22.204Z,8.63
2023-02-05T00:38:57.475Z,8.32
2023-02-05T00:39:31.143Z,9.02
2023-02-05T00:40:07.781Z,9.50
2023-02-05T00:40:41.336Z,8.80
2023-02-05T00:41:16.597Z,8.77
2023-02-05T00:41:51.484Z,9.43
2023-02-05T00:42:24.649Z,8.60
2023-02-05T00:42:58.423Z,9.25
2023-02-05T00:43:33.551Z,8.25
2023-02-05T00:44:07.386Z,8.98
2023-02-05T00:44:41.465Z,8.10
2023-02-05T00:45:17.206Z,9.57
2023-02-05T00:45:52.598Z,8.27
2023-02-05T00:46:27.863Z,8.60
2023-02-05T00:47:01.890Z,8.65
2023-02-05T00:47:35.152Z,9.60
2023-02-05T00:48:10.983Z,8.88
2023-02-05T00:48:45.496Z,8.93
2023-02-05T00:49:19.633Z,10.30
2023-02-05T00:49:54.543Z,9.50
2023-02-05T00:50:28.003Z,8.55
2023-02-05T00:51:02.572Z,9.32
2023-02-05T00:51:37.251Z,9.00
2023-02-05T00:52:10.888Z,8.85
2023-02-05T00:52:45.147Z,8.95
2023-02-05T00:53:20.476Z,9.10
2023-02-05T00:53:54.776Z,8.43
2023-02-05T00:54:29.286Z,8.50
2023-02-05T00:55:04.015Z,8.60
2023-02-05T00:55:37.762Z,8.18
2023-02-05T00:56:11.822Z,9.27
2023-02-05T00:56:45.824Z,8.23
2023-02-05T00:57:24.757Z,8.43
2023-02-05T00:57:59.152Z,7.65
2023-02-05T00:58:33.608Z,8.80
2023-02-05T00:59:08.353Z,8.23
2023-02-05T00:59:43.259Z,8.45
2023-02-05T01:00:16.495Z,8.68
2023-02-05T01:00:55.059Z,8.07
2023-02-05T01:01:29.731Z,8.77
2023-02-05T01:02:05.436Z,8.02
2023-02-05T01:02:39.040Z,8.90
2023-02-05T01:03:13.714Z,7.72
2023-02-05T01:03:48.987Z,8.35
2023-02-05T01:04:22.829Z,8.23
2023-02-05T01:04:57.499Z,8.15
2023-02-05T01:05:33.022Z,8.68
2023-02-05T01:06:07.143Z,8.05
2023-02-05T01:06:42.247Z,7.85
2023-02-05T01:07:16.476Z,8.82
2023-02-05T01:07:49.837Z,7.80
2023-02-05T01:08:24.285Z,7.90
2023-02-05T01:08:58.887Z,7.97
2023-02-05T01:09:35.342Z,9.05
2023-02-05T01:10:08.859Z,7.55
2023-02-05T01:10:44.499Z,8.02
2023-02-05T01:11:18.634Z,8.77
2023-02-05T01:11:51.750Z,8.35
2023-02-05T01:12:26.932Z,8.10
2023-02-05T01:13:01.974Z,7.55
2023-02-05T01:13:35.553Z,8.20
2023-02-05T01:14:08.564Z,8.07
2023-02-05T01:14:43.884Z,8.27
2023-02-05T01:15:18.185Z,8.18
2023-02-05T01:15:51.978Z,8.75
2023-02-05T01:16:27.371Z,8.13
2023-02-05T01:17:01.049Z,8.48
2023-02-05T01:17:35.234Z,7.50
2023-02-05T01:18:08.789Z,8.00
2023-02-05T01:18:43.912Z,8.40
2023-02-05T01:19:17.126Z,7.32
2023-02-05T01:19:51.913Z,7.43
2023-02-05T01:20:26.791Z,7.47
2023-02-05T01:21:00.922Z,7.68
2023-02-05T01:21:36.922Z,7.43
2023-02-05T01:22:12.925Z,7.45
2023-02-05T01:22:47.459Z,8.02
2023-02-05T01:23:23.541Z,7.95
2023-02-05T01:23:58.472Z,8.50
2023-02-05T01:24:33.652Z,7.32
2023-02-05T01:25:10.240Z,8.02
2023-02-05T01:25:43.995Z,7.22
2023-02-05T01:26:17.721Z,8.75
2023-02-05T01:26:53.742Z,7.78
2023-02-05T01:27:28.523Z,8.15
2023-02-05T01:28:02.908Z,7.60
2023-02-05T01:28:37.756Z,7.25
2023-02-05T01:29:11.870Z,7.78
2023-02-05T01:29:45.579Z,8.32
2023-02-05T01:30:19.876Z,7.95
2023-02-05T01:30:53.355Z,8.75
2023-02-05T01:31:28.270Z,7.38
2023-02-05T01:32:03.565Z,7.70
2023-02-05T01:32:38.564Z,7.85
2023-02-05T01:33:13.303Z,8.32
2023-02-05T01:33:48.765Z,7.63
2023-02-05T01:34:24.093Z,7.88
2023-02-05T01:34:58.294Z,7.47
2023-02-05T01:35:33.582Z,7.63
2023-02-05T01:36:09.039Z,8.15
2023-02-05T01:36:42.609Z,8.00
2023-02-05T01:37:17.174Z,7.57
2023-02-05T01:37:51.862Z,8.27
2023-02-05T01:38:25.493Z,7.55
2023-02-05T01:39:00.785Z,7.90
2023-02-05T01:39:37.817Z,7.28
2023-02-05T01:40:13.490Z,7.78
2023-02-05T01:40:47.198Z,7.65
2023-02-05T01:41:21.201Z,8.38
2023-02-05T01:41:57.718Z,7.47
2023-02-05T01:42:33.722Z,7.60
2023-02-05T01:43:11.784Z,7.90
2023-02-05T01:43:45.964Z,7.53
2023-02-05T01:44:25.165Z,7.60
2023-02-05T01:45:17.208Z,7.63
2023-02-05T01:46:06.298Z,7.43
2023-02-05T01:46:40.523Z,7.80
2023-02-05T01:47:15.798Z,7.75
2023-02-05T01:47:49.468Z,7.72
2023-02-05T01:48:25.450Z,8.05
2023-02-05T01:49:01.554Z,7.80
2023-02-05T01:49:38.043Z,7.57
2023-02-05T01:50:11.514Z,7.80
2023-02-05T01:50:48.268Z,7.85
2023-02-05T01:51:23.284Z,7.38
2023-02-05T01:51:59.173Z,8.75
2023-02-05T01:52:33.037Z,8.57
2023-02-05T01:53:07.246Z,8.00
2023-02-05T01:53:42.332Z,8.65
2023-02-05T01:54:18.705Z,8.65
2023-02-05T01:54:55.824Z,9.15
2023-02-05T01:55:29.130Z,8.63
2023-02-05T01:56:04.970Z,9.60
2023-02-05T01:56:42.026Z,9.80
2023-02-05T01:57:18.212Z,9.45
2023-02-05T01:57:52.201Z,10.45
2023-02-05T01:58:27.418Z,9.68
2023-02-05T01:59:03.568Z,10.20
2023-02-05T01:59:39.366Z,10.15
2023-02-05T02:00:13.357Z,9.65
2023-02-05T02:00:51.170Z,10.20
2023-02-05T02:01:25.527Z,10.05
2023-02-05T02:02:01.410Z,10.25
2023-02-05T02:02:37.372Z,10.15
2023-02-05T02:03:12.209Z,11.05
2023-02-05T02:03:46.295Z,10.18
2023-02-05T02:04:24.623Z,10.48
2023-02-05T02:05:01.455Z,9.70
2023-02-05T02:05:35.659Z,10.35
2023-02-05T02:06:09.995Z,9.95
2023-02-05T02:06:43.526Z,10.15
2023-02-05T02:07:20.498Z,10.27
2023-02-05T02:07:55.780Z,10.13
2023-02-05T02:08:32.229Z,10.18
2023-02-05T02:09:07.819Z,9.57
2023-02-05T02:09:43.555Z,10.00
2023-02-05T02:10:19.534Z,9.02
2023-02-05T02:10:54.668Z,9.88
2023-02-05T02:11:30.438Z,8.75
2023-02-05T02:12:04.286Z,9.55
2023-02-05T02:12:39.231Z,10.35
2023-02-05T02:13:16.029Z,10.18
2023-02-05T02:13:50.968Z,9.90
2023-02-05T02:14:27.089Z,9.30
2023-02-05T02:15:02.462Z,9.77
2023-02-05T02:15:36.773Z,9.57
2023-02-05T02:16:11.890Z,9.65
2023-02-05T02:16:45.221Z,9.10
2023-02-05T02:17:20.515Z,10.20
2023-02-05T02:17:56.019Z,9.27
2023-02-05T02:18:30.035Z,9.00
2023-02-05T02:19:05.471Z,10.30
2023-02-05T02:19:42.621Z,9.63
2023-02-05T02:20:20.512Z,9.63
2023-02-05T02:20:59.337Z,11.32
2023-02-05T02:21:52.464Z,10.43
2023-02-05T02:22:35.079Z,9.80
2023-02-05T02:23:12.726Z,10.63
2023-02-05T02:23:54.240Z,9.82
2023-02-05T02:24:44.680Z,10.18
2023-02-05T02:25:46.930Z,10.45
2023-02-05T02:26:43.233Z,9.65
2023-02-05T02:27:22.321Z,11.05
2023-02-05T02:28:01.001Z,10.30
2023-02-05T02:28:36.698Z,10.38
2023-02-05T02:29:14.184Z,10.98
2023-02-05T02:29:51.800Z,10.70
2023-02-05T02:30:27.875Z,11.18
2023-02-05T02:31:06.190Z,11.85
2023-02-05T02:31:44.397Z,10.85
2023-02-05T02:32:21.021Z,12.07
2023-02-05T02:33:02.567Z,11.18
2023-02-05T02:33:38.721Z,11.07
2023-02-05T02:34:12.923Z,11.18
2023-02-05T02:34:48.837Z,11.88
2023-02-05T02:35:27.318Z,11.73
2023-02-05T02:36:03.936Z,11.40
2023-02-05T02:36:39.942Z,11.18
2023-02-05T02:37:17.707Z,11.65
2023-02-05T02:37:54.694Z,12.75
2023-02-05T02:38:31.289Z,12.27
2023-02-05T02:39:10.738Z,11.52
2023-02-05T02:39:46.136Z,11.85
2023-02-05T02:40:22.748Z,12.20
2023-02-05T02:41:02.367Z,11.88
2023-02-05T02:41:39.133Z,11.80
2023-02-05T02:42:15.175Z,10.77
2023-02-05T02:42:50.812Z,11.68
2023-02-05T02:43:28.996Z,11.60
2023-02-05T02:44:06.157Z,12.15
2023-02-05T02:44:42.549Z,12.10
2023-02-05T02:45:17.875Z,11.75
2023-02-05T02:45:54.854Z,11.50
2023-02-05T02:46:31.690Z,11.40
2023-02-05T02:47:07.179Z,10.98
2023-02-05T02:47:45.133Z,11.00
2023-02-05T02:48:20.304Z,10.35
2023-02-05T02:48:58.198Z,10.50
2023-02-05T02:49:36.439Z,9.98
2023-02-05T02:50:13.038Z,10.25
2023-02-05T02:50:48.917Z,10.23
2023-02-05T02:51:23.923Z,10.85
2023-02-05T02:51:59.632Z,10.23
2023-02-05T02:52:34.559Z,10.23
2023-02-05T02:53:11.136Z,9.80
2023-02-05T02:53:47.849Z,10.10
2023-02-05T02:54:22.734Z,9.95
2023-02-05T02:54:57.996Z,8.93
2023-02-05T02:55:34.721Z,8.93
2023-02-05T02:56:09.397Z,9.63
2023-02-05T02:56:45.172Z,10.18
2023-02-05T02:57:20.790Z,8.88
2023-02-05T02:57:56.152Z,8.88
2023-02-05T02:58:35.436Z,8.95
2023-02-05T02:59:12.091Z,9.30
2023-02-05T02:59:48.051Z,8.93
2023-02-05T03:00:25.087Z,9.13
2023-02-05T03:01:01.006Z,9.05
2023-02-05T03:01:37.103Z,9.50
2023-02-05T03:02:13.683Z,9.30
2023-02-05T03:02:48.297Z,8.52
2023-02-05T03:03:24.260Z,8.63
2023-02-05T03:04:01.545Z,8.68
2023-02-05T03:04:38.447Z,8.30
2023-02-05T03:05:14.841Z,9.00
2023-02-05T03:05:51.843Z,9.10
2023-02-05T03:06:28.682Z,9.05
2023-02-05T03:07:07.312Z,8.85
2023-02-05T03:07:45.160Z,8.98
2023-02-05T03:08:21.404Z,7.88
2023-02-05T03:08:55.914Z,8.68
2023-02-05T03:09:34.874Z,8.40
2023-02-05T03:10:11.183Z,8.93
2023-02-05T03:10:49.068Z,9.02
2023-02-05T03:11:22.394Z,8.55
2023-02-05T03:11:56.814Z,8.52
2023-02-05T03:12:32.373Z,8.45
2023-02-05T03:13:08.164Z,7.75
2023-02-05T03:13:43.588Z,7.97
2023-02-05T03:14:18.474Z,8.35
2023-02-05T03:14:53.225Z,8.02
2023-02-05T03:15:26.999Z,8.07
2023-02-05T03:16:01.405Z,8.38
2023-02-05T03:16:36.037Z,8.05
2023-02-05T03:17:09.320Z,7.70
2023-02-05T03:17:45.117Z,8.18
2023-02-05T03:18:20.661Z,8.05
2023-02-05T03:18:56.259Z,7.80
2023-02-05T03:19:31.648Z,7.78
2023-02-05T03:20:07.552Z,8.40
2023-02-05T03:20:44.938Z,7.82
2023-02-05T03:21:25.856Z,8.13
2023-02-05T03:22:01.927Z,9.68
2023-02-05T03:22:37.444Z,7.97
2023-02-05T03:23:10.949Z,7.65
2023-02-05T03:23:45.574Z,7.55
2023-02-05T03:24:20.311Z,31.63
2023-02-05T03:24:54.941Z,18.55
2023-02-05T03:25:30.032Z,9.23
2023-02-05T03:26:05.868Z,7.88
2023-02-05T03:26:49.383Z,8.20
2023-02-05T03:27:27.596Z,8.00
2023-02-05T03:28:02.732Z,8.80
2023-02-05T03:28:40.141Z,8.60
2023-02-05T03:29:17.242Z,8.98
2023-02-05T03:29:57.003Z,7.47
2023-02-05T03:30:36.017Z,8.40
2023-02-05T03:31:14.004Z,8.00
2023-02-05T03:31:54.221Z,8.55
2023-02-05T03:32:35.843Z,7.80
2023-02-05T03:33:18.863Z,8.65
2023-02-05T03:33:57.410Z,7.07
2023-02-05T03:34:37.367Z,7.88
2023-02-05T03:35:20.816Z,8.38
2023-02-05T03:35:59.837Z,8.45
2023-02-05T03:36:40.734Z,7.47
2023-02-05T03:37:18.872Z,7.85
2023-02-05T03:38:02.833Z,7.82
2023-02-05T03:38:46.681Z,8.68
2023-02-05T03:39:28.067Z,7.82
2023-02-05T03:40:05.614Z,8.50
2023-02-05T03:40:43.027Z,8.18
2023-02-05T03:41:19.218Z,8.43
2023-02-05T03:41:57.088Z,7.93
2023-02-05T03:42:47.377Z,7.80
2023-02-05T03:43:30.304Z,7.68
2023-02-05T03:44:09.150Z,7.93
2023-02-05T03:44:58.695Z,8.32
2023-02-05T03:45:40.794Z,7.97
2023-02-05T03:46:20.625Z,8.57
2023-02-05T03:46:59.827Z,7.75
2023-02-05T03:47:36.013Z,6.78
2023-02-05T03:48:17.556Z,7.75
2023-02-05T03:48:56.882Z,7.53
2023-02-05T03:49:34.633Z,8.35
2023-02-05T03:50:13.520Z,7.63
2023-02-05T03:50:52.672Z,7.60
2023-02-05T03:51:32.087Z,7.70
2023-02-05T03:52:09.963Z,5.97
2023-02-05T03:52:45.685Z,7.63
2023-02-05T03:53:24.375Z,8.43
2023-02-05T03:54:07.958Z,7.57
2023-02-05T03:54:46.746Z,7.80
2023-02-05T03:55:29.789Z,7.95
2023-02-05T03:56:07.146Z,8.23
2023-02-05T03:56:47.737Z,8.60
2023-02-05T03:57:26.531Z,7.82
2023-02-05T03:58:04.349Z,8.07
2023-02-05T03:58:41.011Z,7.63
2023-02-05T03:59:17.000Z,8.40
2023-02-05T03:59:53.899Z,8.40
2023-02-05T04:00:28.546Z,8.65
2023-02-05T04:01:03.639Z,8.35
2023-02-05T04:01:38.645Z,7.38
2023-02-05T04:02:11.916Z,8.48
2023-02-05T04:02:49.619Z,8.00
2023-02-05T04:03:27.172Z,8.50
2023-02-05T04:04:01.216Z,7.90
2023-02-05T04:04:36.829Z,8.57
2023-02-05T04:05:12.469Z,8.30
2023-02-05T04:05:48.280Z,8.23
2023-02-05T04:06:22.774Z,8.10
2023-02-05T04:06:59.000Z,8.40
2023-02-05T04:07:33.986Z,8.60
2023-02-05T04:08:09.944Z,8.30
2023-02-05T04:08:50.487Z,7.68
2023-02-05T04:09:25.983Z,7.80
2023-02-05T04:10:01.821Z,8.18
2023-02-05T04:10:37.473Z,8.18
2023-02-05T04:11:13.342Z,8.18
2023-02-05T04:11:49.306Z,8.32
2023-02-05T04:12:26.942Z,7.63
2023-02-05T04:13:02.355Z,8.13
2023-02-05T04:13:36.993Z,8.10
2023-02-05T04:14:11.187Z,8.25
2023-02-05T04:14:48.207Z,8.25
2023-02-05T04:15:24.271Z,8.90
2023-02-05T04:16:01.365Z,8.55
2023-02-05T04:16:37.156Z,8.80
2023-02-05T04:17:11.324Z,8.80
2023-02-05T04:17:45.581Z,8.40
2023-02-05T04:18:20.341Z,9.55
2023-02-05T04:18:55.302Z,8.32
2023-02-05T04:19:29.099Z,8.50
2023-02-05T04:20:06.283Z,8.40
2023-02-05T04:20:41.551Z,8.20
2023-02-05T04:21:16.960Z,8.73
2023-02-05T04:21:50.921Z,8.75
2023-02-05T04:22:27.957Z,7.82
2023-02-05T04:23:02.165Z,8.18
2023-02-05T04:23:38.912Z,8.02
2023-02-05T04:24:14.711Z,8.82
2023-02-05T04:24:49.517Z,9.00
2023-02-05T04:25:23.406Z,8.40
2023-02-05T04:26:01.524Z,9.05
2023-02-05T04:26:42.614Z,8.43
2023-02-05T04:27:16.660Z,7.95
2023-02-05T04:27:53.082Z,7.97
2023-02-05T04:28:27.896Z,8.35
2023-02-05T04:29:02.010Z,7.72
2023-02-05T04:29:40.552Z,8.25
2023-02-05T04:30:15.610Z,8.02
2023-02-05T04:30:53.102Z,7.43
2023-02-05T04:31:27.947Z,7.82
2023-02-05T04:32:02.973Z,7.97
2023-02-05T04:32:36.419Z,7.57
2023-02-05T04:33:12.152Z,7.47
2023-02-05T04:33:46.054Z,7.18
2023-02-05T04:34:22.585Z,8.13
2023-02-05T04:34:58.129Z,8.30
2023-02-05T04:35:32.691Z,7.57
2023-02-05T04:36:06.929Z,7.68
2023-02-05T04:36:41.223Z,7.38
2023-02-05T04:37:15.012Z,7.70
2023-02-05T04:37:49.245Z,8.30
2023-02-05T04:38:24.906Z,7.63
2023-02-05T04:38:59.043Z,7.82
2023-02-05T04:39:33.224Z,7.85
2023-02-05T04:40:11.560Z,8.10
2023-02-05T04:40:46.225Z,7.80
2023-02-05T04:41:20.959Z,7.53
2023-02-05T04:41:55.672Z,8.38
2023-02-05T04:42:29.643Z,7.75
2023-02-05T04:43:04.786Z,7.65
2023-02-05T04:43:39.271Z,7.50
2023-02-05T04:44:12.884Z,8.63
2023-02-05T04:44:48.138Z,8.20
2023-02-05T04:45:22.157Z,7.82
2023-02-05T04:45:58.498Z,7.90
2023-02-05T04:46:34.475Z,7.90
2023-02-05T04:47:07.922Z,7.55
2023-02-05T04:47:42.054Z,7.70
2023-02-05T04:48:17.236Z,8.35
2023-02-05T04:48:50.972Z,8.25
2023-02-05T04:49:24.599Z,7.97
2023-02-05T04:49:58.703Z,8.40
2023-02-05T04:50:33.366Z,8.60
2023-02-05T04:51:08.352Z,7.82
2023-02-05T04:51:44.142Z,8.02
2023-02-05T04:52:18.387Z,8.05
2023-02-05T04:52:52.482Z,7.90
2023-02-05T04:53:27.724Z,7.80
2023-02-05T04:54:01.697Z,8.10
2023-02-05T04:54:38.479Z,8.07
2023-02-05T04:55:13.664Z,8.70
2023-02-05T04:55:47.256Z,8.38
2023-02-05T04:56:20.787Z,8.05
2023-02-05T04:56:56.080Z,7.95
2023-02-05T04:57:31.431Z,8.23
2023-02-05T04:58:05.501Z,8.35
2023-02-05T04:58:39.406Z,8.13
2023-02-05T04:59:13.546Z,9.23
2023-02-05T04:59:47.886Z,8.88
2023-02-05T05:00:21.815Z,9.00
2023-02-05T05:00:57.360Z,8.80
2023-02-05T05:01:33.450Z,8.25
2023-02-05T05:02:07.680Z,8.38
2023-02-05T05:02:41.943Z,8.18
2023-02-05T05:03:15.372Z,7.75
2023-02-05T05:03:49.144Z,7.95
2023-02-05T05:04:23.574Z,8.32
2023-02-05T05:04:58.165Z,8.80
2023-02-05T05:05:33.624Z,7.60
2023-02-05T05:06:07.794Z,8.18
2023-02-05T05:06:41.926Z,8.43
2023-02-05T05:07:17.725Z,7.40
2023-02-05T05:07:51.848Z,8.38
2023-02-05T05:08:25.501Z,8.10
2023-02-05T05:08:59.685Z,8.48
2023-02-05T05:09:33.983Z,9.02
2023-02-05T05:10:08.776Z,8.68
2023-02-05T05:10:44.683Z,8.30
2023-02-05T05:11:19.865Z,8.48
2023-02-05T05:11:53.403Z,8.20
2023-02-05T05:12:27.467Z,8.40
2023-02-05T05:13:02.244Z,9.05
2023-02-05T05:13:36.462Z,9.60
2023-02-05T05:14:10.472Z,9.35
2023-02-05T05:14:45.848Z,8.88
2023-02-05T05:15:19.784Z,9.73
2023-02-05T05:15:54.749Z,9.07
2023-02-05T05:16:29.242Z,8.70
2023-02-05T05:17:04.516Z,8.18
2023-02-05T05:17:38.571Z,9.05
2023-02-05T05:18:13.154Z,8.75
2023-02-05T05:18:46.340Z,8.85
2023-02-05T05:19:20.098Z,8.73
2023-02-05T05:19:55.743Z,8.73
2023-02-05T05:20:30.594Z,8.68
2023-02-05T05:21:05.466Z,7.85
2023-02-05T05:21:39.693Z,9.13
2023-02-05T05:22:12.822Z,8.23
2023-02-05T05:22:46.783Z,8.60
2023-02-05T05:23:21.983Z,9.27
2023-02-05T05:23:55.092Z,8.63
2023-02-05T05:24:29.390Z,7.75
2023-02-05T05:25:04.047Z,8.68
2023-02-05T05:25:42.705Z,8.90
2023-02-05T05:26:16.558Z,6.45
2023-02-05T05:26:51.516Z,8.07
2023-02-05T05:27:25.562Z,9.23
2023-02-05T05:27:59.317Z,8.60
2023-02-05T05:28:35.597Z,7.95
2023-02-05T05:29:09.922Z,8.40
2023-02-05T05:29:45.118Z,8.27
2023-02-05T05:30:21.663Z,7.93
2023-02-05T05:30:56.149Z,9.05
2023-02-05T05:31:30.281Z,7.60
2023-02-05T05:32:06.792Z,7.57
2023-02-05T05:32:41.403Z,8.25
2023-02-05T05:33:15.985Z,9.15
2023-02-05T05:33:50.644Z,8.23
2023-02-05T05:34:23.857Z,8.68
2023-02-05T05:34:57.430Z,7.65
2023-02-05T05:35:32.449Z,8.23
2023-02-05T05:36:06.576Z,8.05
2023-02-05T05:36:43.707Z,8.55
2023-02-05T05:37:18.796Z,8.43
2023-02-05T05:37:52.646Z,8.13
2023-02-05T05:38:26.849Z,8.73
2023-02-05T05:39:21.550Z,7.82
2023-02-05T05:40:13.807Z,8.60
2023-02-05T05:41:05.847Z,7.95
2023-02-05T05:41:58.072Z,7.63
2023-02-05T05:42:50.456Z,7.68
2023-02-05T05:43:43.102Z,7.63
2023-02-05T05:44:18.402Z,8.73
2023-02-05T05:44:53.703Z,8.38
2023-02-05T05:45:28.941Z,8.48
2023-02-05T05:46:04.058Z,8.60
2023-02-05T05:46:38.310Z,8.73
2023-02-05T05:47:13.267Z,8.43
2023-02-05T05:47:48.568Z,8.25
2023-02-05T05:48:22.144Z,8.00
2023-02-05T05:48:57.353Z,8.70
2023-02-05T05:49:32.872Z,8.32
2023-02-05T05:50:07.282Z,7.63
2023-02-05T05:50:41.849Z,8.13
2023-02-05T05:51:17.290Z,7.85
2023-02-05T05:51:50.879Z,7.28
2023-02-05T05:52:24.450Z,12.20
2023-02-05T05:52:59.618Z,7.03
2023-02-05T05:53:34.036Z,7.13
2023-02-05T05:54:08.485Z,7.05
2023-02-05T05:54:43.793Z,7.97
2023-02-05T05:55:18.183Z,6.95
2023-02-05T05:55:51.953Z,6.50
2023-02-05T05:56:27.335Z,6.00
2023-02-05T05:57:00.976Z,7.07
2023-02-05T05:57:34.581Z,6.57
2023-02-05T05:58:09.861Z,6.35
2023-02-05T05:58:44.574Z,6.50
2023-02-05T05:59:18.011Z,6.25
2023-02-05T05:59:52.836Z,6.82
2023-02-05T06:00:25.882Z,6.95
2023-02-05T06:00:59.790Z,6.40
2023-02-05T06:01:34.541Z,6.60
2023-02-05T06:02:09.274Z,6.05
2023-02-05T06:02:45.424Z,6.13
2023-02-05T06:03:22.920Z,5.93
2023-02-05T06:03:56.649Z,6.22
2023-02-05T06:04:31.059Z,6.45
2023-02-05T06:05:07.228Z,5.65
2023-02-05T06:05:41.283Z,6.07
2023-02-05T06:06:16.900Z,6.00
2023-02-05T06:06:50.676Z,5.82
2023-02-05T06:07:26.101Z,5.72
2023-02-05T06:07:59.666Z,6.00
2023-02-05T06:08:34.019Z,5.10
2023-02-05T06:09:08.073Z,5.75
2023-02-05T06:09:43.101Z,5.60
2023-02-05T06:10:16.632Z,5.93
2023-02-05T06:10:52.498Z,5.57
2023-02-05T06:11:26.722Z,5.82
2023-02-05T06:11:59.817Z,5.53
2023-02-05T06:12:34.990Z,5.50
2023-02-05T06:13:09.203Z,5.30
2023-02-05T06:13:42.926Z,5.90
2023-02-05T06:14:17.980Z,6.10
2023-02-05T06:14:51.910Z,5.88
2023-02-05T06:15:27.389Z,5.72
2023-02-05T06:16:03.881Z,6.32
2023-02-05T06:16:37.731Z,6.10
2023-02-05T06:17:12.925Z,6.25
2023-02-05T06:17:48.805Z,5.28
2023-02-05T06:18:23.884Z,5.97
2023-02-05T06:18:58.804Z,5.45
2023-02-05T06:19:35.221Z,5.93
2023-02-05T06:20:10.425Z,5.60
2023-02-05T06:20:44.061Z,5.93
2023-02-05T06:21:19.426Z,5.80
2023-02-05T06:21:53.483Z,5.85
2023-02-05T06:22:27.558Z,6.05
2023-02-05T06:23:03.165Z,6.10
2023-02-05T06:23:38.226Z,6.00
2023-02-05T06:24:12.235Z,6.13
2023-02-05T06:24:47.014Z,6.40
2023-02-05T06:25:22.351Z,6.25
2023-02-05T06:25:55.947Z,5.32
2023-02-05T06:26:30.914Z,6.00
2023-02-05T06:27:03.942Z,6.00
2023-02-05T06:27:37.446Z,6.15
2023-02-05T06:28:12.215Z,6.60
2023-02-05T06:28:46.769Z,6.40
2023-02-05T06:29:23.110Z,6.18
2023-02-05T06:29:57.416Z,6.15
2023-02-05T06:30:31.379Z,5.95
2023-02-05T06:31:07.256Z,5.90
2023-02-05T06:31:41.887Z,6.97
2023-02-05T06:32:16.071Z,6.45
2023-02-05T06:32:52.316Z,6.18
2023-02-05T06:33:25.823Z,6.30
2023-02-05T06:33:59.493Z,5.97
2023-02-05T06:34:34.037Z,6.47
2023-02-05T06:35:08.623Z,6.38
2023-02-05T06:35:42.203Z,6.65
2023-02-05T06:36:16.751Z,6.20
2023-02-05T06:36:50.349Z,6.50
2023-02-05T06:37:34.171Z,7.13
2023-02-05T06:38:21.585Z,6.93
2023-02-05T06:38:55.972Z,6.28
2023-02-05T06:39:31.495Z,6.10
2023-02-05T06:40:05.848Z,6.07
2023-02-05T06:40:39.950Z,6.85
2023-02-05T06:41:15.332Z,6.75
2023-02-05T06:41:48.887Z,6.95
2023-02-05T06:42:23.765Z,6.80
2023-02-05T06:42:59.018Z,6.25
2023-02-05T06:43:33.062Z,7.55
2023-02-05T06:44:06.677Z,7.07
2023-02-05T06:44:41.493Z,6.75
2023-02-05T06:45:15.720Z,6.80
2023-02-05T06:45:50.470Z,7.25
2023-02-05T06:46:24.197Z,7.30
2023-02-05T06:46:57.906Z,8.10
2023-02-05T06:47:34.212Z,7.70
2023-02-05T06:48:09.157Z,7.38
2023-02-05T06:48:42.864Z,7.50
2023-02-05T06:49:17.328Z,7.95
2023-02-05T06:49:51.563Z,6.45
2023-02-05T06:50:25.321Z,7.03
2023-02-05T06:50:59.727Z,7.22
2023-02-05T06:51:34.066Z,6.47
2023-02-05T06:52:09.875Z,6.68
2023-02-05T06:52:44.233Z,7.15
2023-02-05T06:53:17.816Z,7.03
2023-02-05T06:53:55.243Z,7.32
2023-02-05T06:54:29.534Z,7.47
2023-02-05T06:55:03.169Z,7.07
2023-02-05T06:55:40.623Z,7.40
2023-02-05T06:56:14.714Z,7.53
2023-02-05T06:56:49.104Z,7.22
2023-02-05T06:57:23.939Z,7.13
2023-02-05T06:57:57.641Z,7.18
2023-02-05T06:58:30.727Z,7.00
2023-02-05T06:59:06.155Z,7.40
2023-02-05T06:59:40.470Z,7.65
2023-02-05T07:00:17.673Z,6.90
2023-02-05T07:00:52.605Z,7.00
2023-02-05T07:01:26.632Z,7.30
2023-02-05T07:02:00.859Z,8.05
2023-02-05T07:02:36.944Z,7.82
2023-02-05T07:03:12.271Z,8.32
2023-02-05T07:03:46.520Z,7.32
2023-02-05T07:04:21.205Z,8.10
2023-02-05T07:04:55.469Z,7.28
2023-02-05T07:05:29.214Z,7.68
2023-02-05T07:06:05.434Z,7.90
2023-02-05T07:06:39.534Z,8.13
2023-02-05T07:07:14.335Z,7.50
2023-02-05T07:07:50.443Z,7.97
2023-02-05T07:08:25.779Z,8.50
2023-02-05T07:09:00.364Z,8.00
2023-02-05T07:09:35.848Z,8.75
2023-02-05T07:10:10.200Z,7.80
2023-02-05T07:10:45.002Z,8.48
2023-02-05T07:11:19.850Z,8.05
2023-02-05T07:11:53.618Z,8.20
2023-02-05T07:12:27.851Z,8.20
2023-02-05T07:13:03.049Z,7.57
2023-02-05T07:13:37.648Z,8.20
2023-02-05T07:14:10.784Z,8.18
2023-02-05T07:14:44.775Z,9.15
2023-02-05T07:15:19.737Z,7.97
2023-02-05T07:15:54.379Z,8.10
2023-02-05T07:16:28.177Z,7.95
2023-02-05T07:17:02.864Z,7.57
2023-02-05T07:17:37.134Z,7.70
2023-02-05T07:18:12.036Z,7.43
2023-02-05T07:18:46.608Z,7.50
2023-02-05T07:19:22.233Z,8.00
2023-02-05T07:19:56.553Z,8.02
2023-02-05T07:20:30.293Z,7.75
2023-02-05T07:21:08.921Z,7.30
2023-02-05T07:21:43.350Z,8.10
2023-02-05T07:22:19.347Z,7.38
2023-02-05T07:22:52.678Z,8.25
2023-02-05T07:23:26.539Z,7.60
2023-02-05T07:24:02.898Z,8.35
2023-02-05T07:24:37.870Z,7.43
2023-02-05T07:25:11.816Z,8.23
2023-02-05T07:25:47.242Z,7.63
2023-02-05T07:26:21.617Z,7.90
2023-02-05T07:26:55.967Z,7.90
2023-02-05T07:27:31.756Z,7.68
2023-02-05T07:28:06.737Z,7.32
2023-02-05T07:28:42.099Z,8.15
2023-02-05T07:29:16.499Z,7.75
2023-02-05T07:29:51.810Z,7.57
2023-02-05T07:30:26.393Z,7.88
2023-02-05T07:31:04.260Z,7.47
2023-02-05T07:31:40.266Z,8.07
2023-02-05T07:32:14.300Z,7.25
2023-02-05T07:32:48.450Z,8.35
2023-02-05T07:33:24.875Z,7.38
2023-02-05T07:33:58.982Z,7.35
2023-02-05T07:34:33.456Z,7.82
2023-02-05T07:35:09.015Z,7.35
2023-02-05T07:35:42.704Z,6.80
2023-02-05T07:36:17.627Z,7.32
2023-02-05T07:36:53.026Z,6.75
2023-02-05T07:37:27.072Z,8.27
2023-02-05T07:38:01.370Z,7.20
2023-02-05T07:38:37.251Z,7.20
2023-02-05T07:39:11.031Z,7.70
2023-02-05T07:39:47.237Z,7.35
2023-02-05T07:40:22.271Z,7.53
2023-02-05T07:40:57.039Z,7.15
2023-02-05T07:41:32.819Z,8.10
2023-02-05T07:42:07.221Z,7.82
2023-02-05T07:42:50.041Z,7.28
2023-02-05T07:43:24.741Z,7.45
2023-02-05T07:43:58.831Z,7.93
2023-02-05T07:44:34.085Z,7.25
2023-02-05T07:45:09.585Z,6.85
2023-02-05T07:45:43.696Z,6.78
2023-02-05T07:46:20.366Z,7.85
2023-02-05T07:46:54.020Z,7.13
2023-02-05T07:47:28.033Z,8.00
2023-02-05T07:48:03.319Z,7.82
2023-02-05T07:48:39.076Z,8.20
2023-02-05T07:49:12.865Z,7.28
2023-02-05T07:49:47.621Z,7.43
2023-02-05T07:50:23.048Z,7.90
2023-02-05T07:50:56.898Z,7.50
2023-02-05T07:51:32.101Z,7.30
2023-02-05T07:52:07.349Z,7.22
2023-02-05T07:52:42.608Z,7.28
2023-02-05T07:53:17.272Z,7.20
2023-02-05T07:53:50.783Z,7.13